Skravig — FAD5199 — position and weather

sailwx.info

Track history (hours):
 
Tides and Currents Weather Stations Pressure Air Temp Water Temp Dewpoint Dewpoint Depression Visibility Wind Speed Wind Dir Waves Ship Positions

Skravig

Last reported at 2018-Jun-19 13:55 UTC. Time now 2018-Jun-19 20:18 UTC.
Position N 48°23' W 004°30'.

Length 13 m.

Type: Dredging. MMSI: 227401470.

Date/timePositionNaut miles runAvg speedWind from/ knotsBaromVisibWave heightAir tempDewpointWater temp
2018-Jun-19 13:55N 48°23' W 004°30'1 0.3
2018-Jun-19 11:08N 48°22' W 004°31'1 5.0
2018-Jun-19 10:58N 48°23' W 004°30'0 0.3
2018-Jun-19 09:38N 48°23' W 004°30'0 0.0
2018-Jun-18 12:18N 48°23' W 004°30'3 9.6
2018-Jun-18 12:00N 48°20' W 004°30'1 2.8
2018-Jun-18 11:30N 48°19' W 004°30'0 0.1
2018-Jun-18 07:48N 48°18' W 004°30'0 0.4
2018-Jun-18 07:20N 48°18' W 004°30'1 1.5
2018-Jun-18 07:00N 48°18' W 004°30'  
2018-Jun-15 13:58N 48°23' W 004°30'0 0.0
2018-Jun-15 10:16N 48°23' W 004°30'1 1.9
2018-Jun-15 09:53N 48°22' W 004°31'0 0.0
2018-Jun-15 06:13N 48°22' W 004°31'0 0.0
2018-Jun-14 15:03N 48°23' W 004°30'0 2.3
2018-Jun-14 14:58N 48°23' W 004°30'0 0.1
2018-Jun-14 14:24N 48°23' W 004°30'0 0.0
2018-Jun-13 10:05N 48°23' W 004°30'1 8.1
2018-Jun-13 10:00N 48°22' W 004°30'1 0.0
2018-Jun-12 12:26N 48°23' W 004°30'3 7.8
2018-Jun-12 12:00N 48°20' W 004°29'2 0.9
2018-Jun-12 09:42N 48°18' W 004°28'0 0.0
2018-Jun-12 07:29N 48°17' W 004°28'4 9.2
2018-Jun-12 07:00N 48°22' W 004°29'1 0.1
2018-Jun-11 11:10N 48°23' W 004°30'2 9.3
2018-Jun-11 11:00N 48°21' W 004°29'3 5.8
2018-Jun-11 10:30N 48°18' W 004°29'0 0.0
2018-Jun-11 10:00N 48°18' W 004°29'0 0.0
2018-Jun-11 09:27N 48°18' W 004°29'0 0.0
2018-Jun-11 09:00N 48°18' W 004°29'0 0.0
2018-Jun-11 08:30N 48°18' W 004°29'0 0.0
2018-Jun-11 08:00N 48°18' W 004°29'0 0.0
2018-Jun-11 07:30N 48°18' W 004°29'0 0.0
2018-Jun-11 07:00N 48°18' W 004°29'  
Track history (hours):
 
Tides and Currents Weather Stations Pressure Air Temp Water Temp Dewpoint Dewpoint Depression Visibility Wind Speed Wind Dir Waves Ship Positions

Skravig

Last reported at 2018-Jun-19 13:55 UTC. Time now 2018-Jun-19 20:18 UTC.
Position N 48°23' W 004°30'.

Length 13 m.

Type: Dredging. MMSI: 227401470.

Date/timePositionNaut miles runAvg speedWind from/ knotsBaromVisibWave heightAir tempDewpointWater temp
2018-Jun-19 13:55N 48°23' W 004°30'1 0.3
2018-Jun-19 11:08N 48°22' W 004°31'1 5.0
2018-Jun-19 10:58N 48°23' W 004°30'0 0.3
2018-Jun-19 09:38N 48°23' W 004°30'0 0.0
2018-Jun-18 12:18N 48°23' W 004°30'3 9.6
2018-Jun-18 12:00N 48°20' W 004°30'1 2.8
2018-Jun-18 11:30N 48°19' W 004°30'0 0.1
2018-Jun-18 07:48N 48°18' W 004°30'0 0.4
2018-Jun-18 07:20N 48°18' W 004°30'1 1.5
2018-Jun-18 07:00N 48°18' W 004°30'  
2018-Jun-15 13:58N 48°23' W 004°30'0 0.0
2018-Jun-15 10:16N 48°23' W 004°30'1 1.9
2018-Jun-15 09:53N 48°22' W 004°31'0 0.0
2018-Jun-15 06:13N 48°22' W 004°31'0 0.0
2018-Jun-14 15:03N 48°23' W 004°30'0 2.3
2018-Jun-14 14:58N 48°23' W 004°30'0 0.1
2018-Jun-14 14:24N 48°23' W 004°30'0 0.0
2018-Jun-13 10:05N 48°23' W 004°30'1 8.1
2018-Jun-13 10:00N 48°22' W 004°30'1 0.0
2018-Jun-12 12:26N 48°23' W 004°30'3 7.8
2018-Jun-12 12:00N 48°20' W 004°29'2 0.9
2018-Jun-12 09:42N 48°18' W 004°28'0 0.0
2018-Jun-12 07:29N 48°17' W 004°28'4 9.2
2018-Jun-12 07:00N 48°22' W 004°29'1 0.1
2018-Jun-11 11:10N 48°23' W 004°30'2 9.3
2018-Jun-11 11:00N 48°21' W 004°29'3 5.8
2018-Jun-11 10:30N 48°18' W 004°29'0 0.0
2018-Jun-11 10:00N 48°18' W 004°29'0 0.0
2018-Jun-11 09:27N 48°18' W 004°29'0 0.0
2018-Jun-11 09:00N 48°18' W 004°29'0 0.0
2018-Jun-11 08:30N 48°18' W 004°29'0 0.0
2018-Jun-11 08:00N 48°18' W 004°29'0 0.0
2018-Jun-11 07:30N 48°18' W 004°29'0 0.0
2018-Jun-11 07:00N 48°18' W 004°29'  

Dump ship's entire track history